createdAt,value
2023-02-23T00:02:11.057Z,36.97
2023-02-23T00:04:38.310Z,38.97
2023-02-23T00:07:09.616Z,34.13
2023-02-23T00:09:36.157Z,38.08
2023-02-23T00:12:08.399Z,37.35
2023-02-23T00:14:38.390Z,32.63
2023-02-23T00:17:14.896Z,33.55
2023-02-23T00:19:43.704Z,38.10
2023-02-23T00:22:10.636Z,37.13
2023-02-23T00:24:42.260Z,35.75
2023-02-23T00:27:08.788Z,37.10
2023-02-23T00:29:39.699Z,40.60
2023-02-23T00:32:08.856Z,38.17
2023-02-23T00:34:36.656Z,33.65
2023-02-23T00:37:08.546Z,32.90
2023-02-23T00:39:35.513Z,34.38
2023-02-23T00:42:03.662Z,33.08
2023-02-23T00:44:31.276Z,38.25
2023-02-23T00:46:57.878Z,36.67
2023-02-23T00:49:24.422Z,35.17
2023-02-23T00:51:54.939Z,36.65
2023-02-23T00:54:22.075Z,35.78
2023-02-23T00:56:48.825Z,41.00
2023-02-23T00:59:15.865Z,39.22
2023-02-23T01:01:43.766Z,46.03
2023-02-23T01:04:11.635Z,42.95
2023-02-23T01:06:39.009Z,39.10
2023-02-23T01:09:29.978Z,38.97
2023-02-23T01:12:01.443Z,39.90
2023-02-23T01:14:28.832Z,34.80
2023-02-23T01:16:55.288Z,39.92
2023-02-23T01:19:22.096Z,39.55
2023-02-23T01:21:49.675Z,36.50
2023-02-23T01:24:20.289Z,37.03
2023-02-23T01:26:46.833Z,32.75
2023-02-23T01:29:16.193Z,35.83
2023-02-23T01:31:48.208Z,37.75
2023-02-23T01:34:18.635Z,36.75
2023-02-23T01:36:45.711Z,33.90
2023-02-23T01:39:15.127Z,36.80
2023-02-23T01:41:45.017Z,31.42
2023-02-23T01:44:15.401Z,32.35
2023-02-23T01:46:45.207Z,33.63
2023-02-23T01:49:15.576Z,29.85
2023-02-23T01:51:50.001Z,30.08
2023-02-23T01:54:19.874Z,32.72
2023-02-23T01:56:58.150Z,33.95
2023-02-23T01:59:35.255Z,30.85
2023-02-23T02:02:05.240Z,32.78
2023-02-23T02:04:43.908Z,32.85
2023-02-23T02:07:20.445Z,32.22
2023-02-23T02:10:22.005Z,34.55
2023-02-23T02:12:55.474Z,32.00
2023-02-23T02:15:26.057Z,33.28
2023-02-23T02:18:18.483Z,30.05
2023-02-23T02:21:13.437Z,37.72
2023-02-23T02:24:02.183Z,33.20
2023-02-23T02:26:42.525Z,35.42
2023-02-23T02:29:37.832Z,33.80
2023-02-23T02:32:32.015Z,30.77
2023-02-23T02:35:38.087Z,29.83
2023-02-23T02:40:54.618Z,33.65
2023-02-23T02:43:47.013Z,34.67
2023-02-23T02:46:24.434Z,40.13
2023-02-23T02:49:18.457Z,40.97
2023-02-23T02:51:53.912Z,38.92
2023-02-23T02:54:34.172Z,40.30
2023-02-23T02:57:04.346Z,43.45
2023-02-23T02:59:49.656Z,37.83
2023-02-23T03:02:40.428Z,43.28
2023-02-23T03:05:40.367Z,36.63
2023-02-23T03:08:45.764Z,40.47
2023-02-23T03:11:36.426Z,37.63
2023-02-23T03:14:30.970Z,40.90
2023-02-23T03:17:38.597Z,39.25
2023-02-23T03:20:39.428Z,43.05
2023-02-23T03:23:34.780Z,42.85
2023-02-23T03:26:44.769Z,38.67
2023-02-23T03:29:39.360Z,44.53
2023-02-23T03:32:31.056Z,37.05
2023-02-23T03:35:26.484Z,40.67
2023-02-23T03:38:30.376Z,37.88
2023-02-23T03:41:17.699Z,37.28
2023-02-23T03:44:13.891Z,36.83
2023-02-23T03:49:47.697Z,36.75
2023-02-23T03:52:45.956Z,37.83
2023-02-23T03:55:36.153Z,36.13
2023-02-23T03:58:23.438Z,36.13
2023-02-23T04:01:09.368Z,37.17
2023-02-23T04:04:01.144Z,31.80
2023-02-23T04:06:51.656Z,36.97
2023-02-23T04:09:36.881Z,39.20
2023-02-23T04:12:26.443Z,37.42
2023-02-23T04:15:10.719Z,35.40
2023-02-23T04:20:04.040Z,36.50
2023-02-23T04:22:35.516Z,39.38
2023-02-23T04:25:02.200Z,37.67
2023-02-23T04:27:28.661Z,34.47
2023-02-23T04:29:55.112Z,36.95
2023-02-23T04:32:21.679Z,33.42
2023-02-23T04:34:48.531Z,35.42
2023-02-23T04:37:16.269Z,41.50
2023-02-23T04:39:48.417Z,42.30
2023-02-23T04:42:16.994Z,41.38
2023-02-23T04:44:44.466Z,39.85
2023-02-23T04:47:11.524Z,38.40
2023-02-23T04:49:38.467Z,39.40
2023-02-23T04:52:04.966Z,41.50
2023-02-23T04:54:31.517Z,45.58
2023-02-23T04:56:57.959Z,43.78
2023-02-23T04:59:24.783Z,40.45
2023-02-23T05:01:54.170Z,37.42
2023-02-23T05:04:20.880Z,41.80
2023-02-23T05:06:48.345Z,45.60
2023-02-23T05:09:15.513Z,42.55
2023-02-23T05:11:42.252Z,41.75
2023-02-23T05:14:09.789Z,42.63
2023-02-23T05:16:36.227Z,40.88
2023-02-23T05:19:03.312Z,43.17
2023-02-23T05:21:29.783Z,40.63
2023-02-23T05:23:57.246Z,38.72
2023-02-23T05:26:23.787Z,37.15
2023-02-23T05:28:50.247Z,36.40
2023-02-23T05:31:17.408Z,39.42
2023-02-23T05:33:47.129Z,38.50
2023-02-23T05:36:17.029Z,40.72
2023-02-23T05:38:49.300Z,38.35
2023-02-23T05:41:21.384Z,39.63
2023-02-23T05:43:49.484Z,39.55
2023-02-23T05:46:18.262Z,41.60
2023-02-23T05:48:44.787Z,40.88
2023-02-23T05:51:14.093Z,38.17
2023-02-23T05:53:40.699Z,41.05
2023-02-23T05:56:09.036Z,44.65
2023-02-23T05:58:35.474Z,40.40
2023-02-23T06:01:07.358Z,44.45
2023-02-23T06:03:34.424Z,43.83
2023-02-23T06:06:00.914Z,42.60
2023-02-23T06:08:27.457Z,41.33
2023-02-23T06:10:53.894Z,45.30
2023-02-23T06:13:21.272Z,49.05
2023-02-23T06:15:49.347Z,47.80
2023-02-23T06:18:17.034Z,46.10
2023-02-23T06:20:43.799Z,45.15
2023-02-23T06:23:10.368Z,46.15
2023-02-23T06:25:36.844Z,48.80
2023-02-23T06:28:04.084Z,44.65
2023-02-23T06:30:30.595Z,45.10
2023-02-23T06:32:57.054Z,50.50
2023-02-23T06:35:24.135Z,45.60
2023-02-23T06:37:50.688Z,47.72
2023-02-23T06:40:21.310Z,47.58
2023-02-23T06:42:47.754Z,50.88
2023-02-23T06:45:14.587Z,46.28
2023-02-23T06:47:41.035Z,51.55
2023-02-23T06:50:08.983Z,47.60
2023-02-23T06:52:35.458Z,44.67
2023-02-23T06:55:01.888Z,41.72
2023-02-23T06:57:28.434Z,49.30
2023-02-23T06:59:54.880Z,46.20
2023-02-23T07:02:21.461Z,49.13
2023-02-23T07:04:51.164Z,48.38
2023-02-23T07:07:17.612Z,45.33
2023-02-23T07:09:44.080Z,42.00
2023-02-23T07:12:10.722Z,41.35
2023-02-23T07:14:40.633Z,46.03
2023-02-23T07:17:07.763Z,49.85
2023-02-23T07:19:34.902Z,50.97
2023-02-23T07:22:08.797Z,51.33
2023-02-23T07:24:35.818Z,48.58
2023-02-23T07:27:07.255Z,44.53
2023-02-23T07:29:33.834Z,44.53
2023-02-23T07:32:01.221Z,44.58
2023-02-23T07:34:28.059Z,42.10
2023-02-23T07:36:54.491Z,44.33
2023-02-23T07:39:21.451Z,45.58
2023-02-23T07:41:47.956Z,45.72
2023-02-23T07:44:18.879Z,44.15
2023-02-23T07:46:46.459Z,43.75
2023-02-23T07:49:13.840Z,39.60
2023-02-23T07:51:40.911Z,41.70
2023-02-23T07:54:07.569Z,37.78
2023-02-23T07:56:35.613Z,39.50
2023-02-23T07:59:02.488Z,40.22
2023-02-23T08:01:29.003Z,42.63
2023-02-23T08:03:56.049Z,43.80
2023-02-23T08:06:22.947Z,44.13
2023-02-23T08:08:53.465Z,46.72
2023-02-23T08:11:21.208Z,44.95
2023-02-23T08:13:47.751Z,45.08
2023-02-23T08:16:14.815Z,40.58
2023-02-23T08:18:41.330Z,38.03
2023-02-23T08:21:07.851Z,42.63
2023-02-23T08:23:34.767Z,46.20
2023-02-23T08:26:02.263Z,34.83
2023-02-23T08:28:30.270Z,38.28
2023-02-23T08:30:57.078Z,37.92
2023-02-23T08:33:24.462Z,36.75
2023-02-23T08:35:53.693Z,41.55
2023-02-23T08:38:20.437Z,39.78
2023-02-23T08:40:50.728Z,44.47
2023-02-23T08:43:17.187Z,39.17
2023-02-23T08:45:44.558Z,40.05
2023-02-23T08:48:11.375Z,39.17
2023-02-23T08:50:38.052Z,39.83
2023-02-23T08:53:05.344Z,41.17
2023-02-23T08:55:32.581Z,39.95
2023-02-23T08:57:59.116Z,36.60
2023-02-23T09:00:25.614Z,38.33
2023-02-23T09:03:01.881Z,39.38
2023-02-23T09:05:28.749Z,46.65
2023-02-23T09:07:55.233Z,40.47
2023-02-23T09:10:24.838Z,39.40
2023-02-23T09:12:51.992Z,43.22
2023-02-23T09:15:23.487Z,38.50
2023-02-23T09:17:50.406Z,40.55
2023-02-23T09:20:19.931Z,43.25
2023-02-23T09:22:48.975Z,45.33
2023-02-23T09:25:22.730Z,43.35
2023-02-23T09:30:20.326Z,44.67
2023-02-23T09:32:48.339Z,45.88
2023-02-23T09:35:18.836Z,45.28
2023-02-23T09:37:51.625Z,47.85
2023-02-23T09:40:27.460Z,50.35
2023-02-23T09:43:06.451Z,49.10
2023-02-23T09:45:41.168Z,46.10
2023-02-23T09:48:16.919Z,48.25
2023-02-23T09:50:48.289Z,48.70
2023-02-23T09:53:38.364Z,50.00
2023-02-23T09:56:22.059Z,47.35
2023-02-23T09:58:50.367Z,46.78
2023-02-23T10:01:35.753Z,47.05
2023-02-23T10:04:12.340Z,46.63
2023-02-23T10:06:40.472Z,54.90
2023-02-23T10:09:14.601Z,48.10
2023-02-23T10:11:51.569Z,55.22
2023-02-23T10:14:52.905Z,53.78
2023-02-23T10:17:44.378Z,53.38
2023-02-23T10:20:29.026Z,55.50
2023-02-23T10:22:57.315Z,59.15
2023-02-23T10:25:26.385Z,61.78
2023-02-23T10:27:55.638Z,59.10
2023-02-23T10:30:28.688Z,59.00
2023-02-23T10:33:16.985Z,63.47
2023-02-23T10:35:44.295Z,64.63
2023-02-23T10:38:15.717Z,61.20
2023-02-23T10:40:43.646Z,67.43
2023-02-23T10:43:11.684Z,61.28
2023-02-23T10:45:46.833Z,63.53
2023-02-23T10:48:20.454Z,61.83
2023-02-23T10:50:49.140Z,65.32
2023-02-23T10:53:24.060Z,70.15
2023-02-23T10:56:12.740Z,63.53
2023-02-23T10:58:44.506Z,69.88
2023-02-23T11:01:11.424Z,62.83
2023-02-23T11:03:42.897Z,60.53
2023-02-23T11:06:33.388Z,63.28
2023-02-23T11:09:17.258Z,63.63
2023-02-23T11:12:02.747Z,68.47
2023-02-23T11:14:30.895Z,70.82
2023-02-23T11:16:58.920Z,72.75
2023-02-23T11:19:33.729Z,66.65
2023-02-23T11:22:00.720Z,62.50
2023-02-23T11:24:39.591Z,63.17
2023-02-23T11:27:16.938Z,63.58
2023-02-23T11:29:44.552Z,63.80
2023-02-23T11:32:20.819Z,62.85
2023-02-23T11:34:49.410Z,61.22
2023-02-23T11:37:20.142Z,61.47
2023-02-23T11:39:58.327Z,59.40
2023-02-23T11:42:33.263Z,55.17
2023-02-23T11:45:15.489Z,60.15
2023-02-23T11:47:47.495Z,55.72
2023-02-23T11:50:29.617Z,54.72
2023-02-23T11:53:07.263Z,53.97
2023-02-23T11:55:34.964Z,53.33
2023-02-23T11:58:37.485Z,58.55
2023-02-23T12:01:13.774Z,54.88
2023-02-23T12:03:47.612Z,58.33
2023-02-23T12:06:31.434Z,57.50
2023-02-23T12:09:06.628Z,58.47
2023-02-23T12:11:37.830Z,57.58
2023-02-23T12:14:23.003Z,57.28
2023-02-23T12:16:57.691Z,59.10
2023-02-23T12:19:45.161Z,55.00
2023-02-23T12:22:14.901Z,61.67
2023-02-23T12:24:47.354Z,57.97
2023-02-23T12:27:22.405Z,65.40
2023-02-23T12:29:58.591Z,57.90
2023-02-23T12:32:29.522Z,53.80
2023-02-23T12:35:06.357Z,52.03
2023-02-23T12:37:43.225Z,48.47
2023-02-23T12:40:38.563Z,51.90
2023-02-23T12:43:19.955Z,51.42
2023-02-23T12:45:54.961Z,50.78
2023-02-23T12:48:48.965Z,51.47
2023-02-23T12:51:34.432Z,53.17
2023-02-23T12:54:01.468Z,50.33
2023-02-23T12:56:50.494Z,50.97
2023-02-23T12:59:37.863Z,46.47
2023-02-23T13:02:18.013Z,50.10
2023-02-23T13:04:53.540Z,50.28
2023-02-23T13:07:23.011Z,52.15
2023-02-23T13:09:57.718Z,50.92
2023-02-23T13:12:51.364Z,52.28
2023-02-23T13:15:36.660Z,54.33
2023-02-23T13:18:09.777Z,50.83
2023-02-23T13:20:55.407Z,50.23
2023-02-23T13:23:36.384Z,49.65
2023-02-23T13:26:33.483Z,49.20
2023-02-23T13:29:06.439Z,53.15
2023-02-23T13:31:36.079Z,58.58
2023-02-23T13:34:05.436Z,54.85
2023-02-23T13:36:33.699Z,49.88
2023-02-23T13:39:18.475Z,51.58
2023-02-23T13:42:16.156Z,52.13
2023-02-23T13:44:49.191Z,54.85
2023-02-23T13:47:40.157Z,59.65
2023-02-23T13:50:22.819Z,52.50
2023-02-23T13:52:55.637Z,60.45
2023-02-23T13:55:37.210Z,66.70
2023-02-23T13:58:29.744Z,61.53
2023-02-23T14:01:05.843Z,58.95
2023-02-23T14:03:40.352Z,60.72
2023-02-23T14:06:07.869Z,56.85
2023-02-23T14:08:36.593Z,58.35
2023-02-23T14:11:03.298Z,59.55
2023-02-23T14:13:35.108Z,57.95
2023-02-23T14:16:15.433Z,60.60
2023-02-23T14:19:06.115Z,59.40
2023-02-23T14:21:33.230Z,57.63
2023-02-23T14:24:12.057Z,58.20
2023-02-23T14:26:45.529Z,58.63
2023-02-23T14:29:14.993Z,59.88
2023-02-23T14:31:57.516Z,60.33
2023-02-23T14:34:43.357Z,64.95
2023-02-23T14:37:19.327Z,63.30
2023-02-23T14:39:49.281Z,61.38
2023-02-23T14:42:25.116Z,66.20
2023-02-23T14:44:53.809Z,66.05
2023-02-23T14:47:22.262Z,66.38
2023-02-23T14:50:00.367Z,64.85
2023-02-23T14:52:37.822Z,61.17
2023-02-23T14:55:21.293Z,66.22
2023-02-23T14:57:48.156Z,62.90
2023-02-23T15:00:22.892Z,61.63
2023-02-23T15:03:04.777Z,65.43
2023-02-23T15:05:33.699Z,62.13
2023-02-23T15:08:03.731Z,66.93
2023-02-23T15:10:38.861Z,66.55
2023-02-23T15:13:17.517Z,69.18
2023-02-23T15:15:45.652Z,65.85
2023-02-23T15:19:08.590Z,69.20
2023-02-23T15:21:56.594Z,70.63
2023-02-23T15:24:27.862Z,73.88
2023-02-23T15:26:57.993Z,79.35
2023-02-23T15:29:30.508Z,80.82
2023-02-23T15:32:14.878Z,77.47
2023-02-23T15:34:41.576Z,71.45
2023-02-23T15:37:24.386Z,74.05
2023-02-23T15:39:54.419Z,76.03
2023-02-23T15:42:25.121Z,85.93
2023-02-23T15:44:58.632Z,78.82
2023-02-23T15:47:30.396Z,83.10
2023-02-23T15:50:16.523Z,83.68
2023-02-23T15:52:50.013Z,79.88
2023-02-23T15:55:23.274Z,81.05
2023-02-23T15:57:54.509Z,75.00
2023-02-23T16:00:39.049Z,88.45
2023-02-23T16:03:09.919Z,90.78
2023-02-23T16:05:46.973Z,92.10
2023-02-23T16:08:23.772Z,81.80
2023-02-23T16:10:55.018Z,89.90
2023-02-23T16:13:22.342Z,84.97
2023-02-23T16:15:50.342Z,80.50
2023-02-23T16:18:19.615Z,84.75
2023-02-23T16:20:46.276Z,94.72
2023-02-23T16:23:34.319Z,93.40
2023-02-23T16:26:07.091Z,101.05
2023-02-23T16:28:34.410Z,98.95
2023-02-23T16:31:04.402Z,97.90
2023-02-23T16:33:41.114Z,98.68
2023-02-23T16:36:10.982Z,103.22
2023-02-23T16:38:59.689Z,105.13
2023-02-23T16:41:31.301Z,97.80
2023-02-23T16:44:00.726Z,106.28
2023-02-23T16:47:02.764Z,93.82
2023-02-23T16:49:32.618Z,101.13
2023-02-23T16:52:00.036Z,102.95
2023-02-23T16:54:27.088Z,101.70
2023-02-23T16:56:55.390Z,94.47
2023-02-23T16:59:23.347Z,99.47
2023-02-23T17:01:50.783Z,97.32
2023-02-23T17:04:19.153Z,95.32
2023-02-23T17:06:52.804Z,96.30
2023-02-23T17:09:19.488Z,97.50
2023-02-23T17:11:47.295Z,104.05
2023-02-23T17:14:24.746Z,100.35
2023-02-23T17:16:51.803Z,105.82
2023-02-23T17:19:19.339Z,99.72
2023-02-23T17:21:46.611Z,107.88
2023-02-23T17:24:13.059Z,104.82
2023-02-23T17:26:39.707Z,97.07
2023-02-23T17:29:06.217Z,101.00
2023-02-23T17:31:33.460Z,100.55
2023-02-23T17:34:00.125Z,101.70
2023-02-23T17:36:27.635Z,106.10
2023-02-23T17:39:00.891Z,95.55
2023-02-23T17:41:27.383Z,104.07
2023-02-23T17:43:54.202Z,93.05
2023-02-23T17:46:20.959Z,96.40
2023-02-23T17:48:47.549Z,103.97
2023-02-23T17:51:16.894Z,85.30
2023-02-23T17:53:46.329Z,89.78
2023-02-23T17:56:12.802Z,82.82
2023-02-23T17:58:40.434Z,78.30
2023-02-23T18:01:09.040Z,88.43
2023-02-23T18:03:37.032Z,85.38
2023-02-23T18:06:09.225Z,89.60
2023-02-23T18:08:36.488Z,78.40
2023-02-23T18:11:03.435Z,65.82
2023-02-23T18:13:31.193Z,65.95
2023-02-23T18:16:04.396Z,62.60
2023-02-23T18:18:33.768Z,63.90
2023-02-23T18:21:00.554Z,64.03
2023-02-23T18:23:35.837Z,62.13
2023-02-23T18:26:23.012Z,64.22
2023-02-23T18:28:51.028Z,75.32
2023-02-23T18:31:23.202Z,93.70
2023-02-23T18:33:52.802Z,99.47
2023-02-23T18:36:30.761Z,99.10
2023-02-23T18:38:58.922Z,94.22
2023-02-23T18:41:30.862Z,86.97
2023-02-23T18:44:02.097Z,85.65
2023-02-23T18:46:29.170Z,72.95
2023-02-23T18:48:55.757Z,77.97
2023-02-23T18:51:23.206Z,79.78
2023-02-23T18:53:50.824Z,82.93
2023-02-23T18:56:23.047Z,92.13
2023-02-23T18:58:51.544Z,91.38
2023-02-23T19:01:21.283Z,102.85
2023-02-23T19:03:48.916Z,109.38
2023-02-23T19:06:16.571Z,113.47
2023-02-23T19:08:44.214Z,110.45
2023-02-23T19:11:11.858Z,100.72
2023-02-23T19:13:38.554Z,103.07
2023-02-23T19:16:08.420Z,99.32
2023-02-23T19:18:35.656Z,92.32
2023-02-23T19:21:03.346Z,91.03
2023-02-23T19:23:29.824Z,86.93
2023-02-23T19:25:59.518Z,86.35
2023-02-23T19:28:27.425Z,79.05
2023-02-23T19:31:06.132Z,69.53
2023-02-23T19:33:35.449Z,67.25
2023-02-23T19:36:07.876Z,60.97
2023-02-23T19:38:37.530Z,60.53
2023-02-23T19:41:07.637Z,44.50
2023-02-23T19:43:36.577Z,39.60
2023-02-23T19:46:07.698Z,35.88
2023-02-23T19:48:34.880Z,36.78
2023-02-23T19:51:01.741Z,26.50
2023-02-23T19:53:28.361Z,26.08
2023-02-23T19:56:08.656Z,30.60
2023-02-23T19:58:35.285Z,31.60
2023-02-23T20:01:10.118Z,30.60
2023-02-23T20:03:42.162Z,29.80
2023-02-23T20:06:14.214Z,31.15
2023-02-23T20:08:41.728Z,31.67
2023-02-23T20:11:08.247Z,32.90
2023-02-23T20:13:35.237Z,34.92
2023-02-23T20:16:13.072Z,33.58
2023-02-23T20:18:41.565Z,35.28
2023-02-23T20:21:16.528Z,32.35
2023-02-23T20:23:44.263Z,35.95
2023-02-23T20:26:14.178Z,34.08
2023-02-23T20:28:41.017Z,34.95
2023-02-23T20:31:18.682Z,37.70
2023-02-23T20:33:45.371Z,39.70
2023-02-23T20:36:14.800Z,38.65
2023-02-23T20:38:41.420Z,41.85
2023-02-23T20:41:08.056Z,36.10
2023-02-23T20:43:34.652Z,35.53
2023-02-23T20:46:01.555Z,36.92
2023-02-23T20:48:32.840Z,33.33
2023-02-23T20:50:59.655Z,34.53
2023-02-23T20:53:26.493Z,38.13
2023-02-23T20:55:53.621Z,39.30
2023-02-23T20:58:23.641Z,38.58
2023-02-23T21:00:50.412Z,37.88
2023-02-23T21:03:17.326Z,38.45
2023-02-23T21:05:44.011Z,35.90
2023-02-23T21:08:10.674Z,40.58
2023-02-23T21:10:39.065Z,42.50
2023-02-23T21:13:06.374Z,41.92
2023-02-23T21:15:35.129Z,35.88
2023-02-23T21:18:02.572Z,34.50
2023-02-23T21:20:29.499Z,35.38
2023-02-23T21:22:56.796Z,36.67
2023-02-23T21:25:25.266Z,34.78
2023-02-23T21:27:51.845Z,35.22
2023-02-23T21:30:20.420Z,32.47
2023-02-23T21:32:52.089Z,31.77
2023-02-23T21:35:20.150Z,33.13
2023-02-23T21:37:47.390Z,31.83
2023-02-23T21:40:17.978Z,32.70
2023-02-23T21:42:44.516Z,31.58
2023-02-23T21:45:13.252Z,32.20
2023-02-23T21:47:42.916Z,32.88
2023-02-23T21:50:13.535Z,30.77
2023-02-23T21:52:44.249Z,30.40
2023-02-23T21:55:23.163Z,27.13
2023-02-23T21:57:50.733Z,29.48
2023-02-23T22:00:19.058Z,25.52
2023-02-23T22:02:46.833Z,27.27
2023-02-23T22:05:15.172Z,24.27
2023-02-23T22:07:47.808Z,27.92
2023-02-23T22:10:14.335Z,24.85
2023-02-23T22:12:40.784Z,23.52
2023-02-23T22:15:08.161Z,26.70
2023-02-23T22:17:36.034Z,26.40
2023-02-23T22:20:05.534Z,27.95
2023-02-23T22:22:36.021Z,30.80
2023-02-23T22:25:04.240Z,30.08
2023-02-23T22:27:30.768Z,30.85
2023-02-23T22:30:01.752Z,31.13
2023-02-23T22:32:32.840Z,30.13
2023-02-23T22:35:00.709Z,33.03
2023-02-23T22:37:31.947Z,31.50
2023-02-23T22:40:00.031Z,33.83
2023-02-23T22:42:29.566Z,31.15
2023-02-23T22:44:56.911Z,30.25
2023-02-23T22:47:24.225Z,37.53
2023-02-23T22:49:50.903Z,32.08
2023-02-23T22:52:17.984Z,33.47
2023-02-23T22:54:47.793Z,30.15
2023-02-23T22:57:14.980Z,30.27
2023-02-23T22:59:54.425Z,29.20
2023-02-23T23:02:22.716Z,27.45
2023-02-23T23:04:49.624Z,27.95
2023-02-23T23:07:20.021Z,25.88
2023-02-23T23:09:47.059Z,24.52
2023-02-23T23:12:13.624Z,27.15
2023-02-23T23:14:40.094Z,24.67
2023-02-23T23:17:07.134Z,26.08
2023-02-23T23:19:39.010Z,27.42
2023-02-23T23:22:06.025Z,27.15
2023-02-23T23:24:33.207Z,29.70
2023-02-23T23:27:00.860Z,28.88
2023-02-23T23:29:30.065Z,29.60
2023-02-23T23:32:01.510Z,30.85
2023-02-23T23:34:28.132Z,27.65
2023-02-23T23:36:55.368Z,27.13
2023-02-23T23:39:23.353Z,27.88
2023-02-23T23:41:50.601Z,27.02
2023-02-23T23:44:19.736Z,28.20
2023-02-23T23:46:47.521Z,28.58
2023-02-23T23:49:16.309Z,25.63
2023-02-23T23:51:49.935Z,25.65
2023-02-23T23:54:19.904Z,26.90
2023-02-23T23:56:46.449Z,29.02
2023-02-23T23:59:20.299Z,27.10
